sensor_id;sensor_type;location;lat;lon;timestamp;P1;durP1;ratioP1;P2;durP2;ratioP2
438;SDS011;206;48.782;9.252;2023-07-29T00:01:41;4.97;;;4.67;;
438;SDS011;206;48.782;9.252;2023-07-29T00:04:07;3.70;;;3.20;;
438;SDS011;206;48.782;9.252;2023-07-29T00:06:34;6.20;;;3.63;;
438;SDS011;206;48.782;9.252;2023-07-29T00:09:00;6.90;;;4.23;;
438;SDS011;206;48.782;9.252;2023-07-29T00:11:25;4.73;;;3.67;;
438;SDS011;206;48.782;9.252;2023-07-29T00:13:51;5.63;;;4.17;;
438;SDS011;206;48.782;9.252;2023-07-29T00:16:17;6.17;;;3.80;;
438;SDS011;206;48.782;9.252;2023-07-29T00:18:46;4.67;;;4.37;;
438;SDS011;206;48.782;9.252;2023-07-29T00:21:12;6.00;;;5.63;;
438;SDS011;206;48.782;9.252;2023-07-29T00:23:38;5.10;;;3.97;;
438;SDS011;206;48.782;9.252;2023-07-29T00:26:04;5.77;;;3.33;;
438;SDS011;206;48.782;9.252;2023-07-29T00:28:30;3.80;;;2.97;;
438;SDS011;206;48.782;9.252;2023-07-29T00:30:56;3.00;;;2.80;;
438;SDS011;206;48.782;9.252;2023-07-29T00:33:21;3.60;;;3.40;;
438;SDS011;206;48.782;9.252;2023-07-29T00:35:47;4.20;;;3.30;;
438;SDS011;206;48.782;9.252;2023-07-29T00:38:12;5.17;;;3.47;;
438;SDS011;206;48.782;9.252;2023-07-29T00:40:38;5.07;;;3.23;;
438;SDS011;206;48.782;9.252;2023-07-29T00:43:04;6.10;;;3.67;;
438;SDS011;206;48.782;9.252;2023-07-29T00:45:29;4.23;;;3.97;;
438;SDS011;206;48.782;9.252;2023-07-29T00:47:56;6.57;;;3.73;;
438;SDS011;206;48.782;9.252;2023-07-29T00:50:23;4.03;;;3.50;;
438;SDS011;206;48.782;9.252;2023-07-29T00:52:49;4.80;;;3.83;;
438;SDS011;206;48.782;9.252;2023-07-29T00:55:15;4.97;;;2.77;;
438;SDS011;206;48.782;9.252;2023-07-29T00:57:41;4.70;;;3.10;;
438;SDS011;206;48.782;9.252;2023-07-29T01:00:07;5.33;;;3.57;;
438;SDS011;206;48.782;9.252;2023-07-29T01:02:34;4.20;;;3.90;;
438;SDS011;206;48.782;9.252;2023-07-29T01:05:00;3.00;;;2.80;;
438;SDS011;206;48.782;9.252;2023-07-29T01:07:33;3.83;;;3.73;;
438;SDS011;206;48.782;9.252;2023-07-29T01:15:14;4.30;;;2.80;;
438;SDS011;206;48.782;9.252;2023-07-29T01:17:54;6.23;;;3.33;;
438;SDS011;206;48.782;9.252;2023-07-29T01:20:23;3.70;;;2.80;;
438;SDS011;206;48.782;9.252;2023-07-29T01:22:50;4.27;;;3.10;;
438;SDS011;206;48.782;9.252;2023-07-29T01:25:16;6.10;;;3.17;;
438;SDS011;206;48.782;9.252;2023-07-29T01:27:42;2.50;;;2.30;;
438;SDS011;206;48.782;9.252;2023-07-29T01:30:10;4.20;;;3.00;;
438;SDS011;206;48.782;9.252;2023-07-29T01:32:40;4.33;;;3.13;;
438;SDS011;206;48.782;9.252;2023-07-29T01:38:01;4.37;;;2.70;;
438;SDS011;206;48.782;9.252;2023-07-29T01:40:30;3.70;;;2.80;;
438;SDS011;206;48.782;9.252;2023-07-29T01:42:56;4.83;;;3.07;;
438;SDS011;206;48.782;9.252;2023-07-29T01:45:25;2.73;;;2.53;;
438;SDS011;206;48.782;9.252;2023-07-29T01:47:51;3.77;;;2.90;;
438;SDS011;206;48.782;9.252;2023-07-29T01:50:17;3.67;;;2.80;;
438;SDS011;206;48.782;9.252;2023-07-29T01:52:42;3.00;;;2.70;;
438;SDS011;206;48.782;9.252;2023-07-29T01:55:08;3.13;;;2.67;;
438;SDS011;206;48.782;9.252;2023-07-29T01:57:34;5.73;;;2.50;;
438;SDS011;206;48.782;9.252;2023-07-29T01:59:59;5.13;;;2.50;;
438;SDS011;206;48.782;9.252;2023-07-29T02:02:25;3.33;;;2.90;;
438;SDS011;206;48.782;9.252;2023-07-29T02:04:50;6.50;;;2.20;;
438;SDS011;206;48.782;9.252;2023-07-29T02:07:18;3.80;;;2.70;;
438;SDS011;206;48.782;9.252;2023-07-29T02:09:44;2.37;;;2.10;;
438;SDS011;206;48.782;9.252;2023-07-29T02:12:10;2.60;;;2.43;;
438;SDS011;206;48.782;9.252;2023-07-29T02:14:35;2.47;;;2.33;;
438;SDS011;206;48.782;9.252;2023-07-29T02:17:01;2.77;;;2.60;;
438;SDS011;206;48.782;9.252;2023-07-29T02:19:26;3.87;;;2.23;;
438;SDS011;206;48.782;9.252;2023-07-29T02:21:52;2.47;;;2.30;;
438;SDS011;206;48.782;9.252;2023-07-29T02:24:17;2.43;;;2.23;;
438;SDS011;206;48.782;9.252;2023-07-29T02:26:43;6.00;;;2.10;;
438;SDS011;206;48.782;9.252;2023-07-29T02:29:09;2.80;;;1.93;;
438;SDS011;206;48.782;9.252;2023-07-29T02:31:34;2.00;;;1.50;;
438;SDS011;206;48.782;9.252;2023-07-29T02:34:02;2.43;;;1.63;;
438;SDS011;206;48.782;9.252;2023-07-29T02:36:28;2.20;;;1.93;;
438;SDS011;206;48.782;9.252;2023-07-29T02:38:53;2.20;;;1.90;;
438;SDS011;206;48.782;9.252;2023-07-29T02:41:19;2.60;;;1.70;;
438;SDS011;206;48.782;9.252;2023-07-29T02:43:48;4.57;;;2.20;;
438;SDS011;206;48.782;9.252;2023-07-29T02:46:14;2.47;;;2.20;;
438;SDS011;206;48.782;9.252;2023-07-29T02:48:39;2.40;;;2.20;;
438;SDS011;206;48.782;9.252;2023-07-29T02:51:05;3.57;;;3.00;;
438;SDS011;206;48.782;9.252;2023-07-29T02:53:30;3.40;;;3.23;;
438;SDS011;206;48.782;9.252;2023-07-29T02:55:56;3.73;;;3.53;;
438;SDS011;206;48.782;9.252;2023-07-29T02:58:22;3.50;;;2.60;;
438;SDS011;206;48.782;9.252;2023-07-29T03:00:47;3.30;;;3.00;;
438;SDS011;206;48.782;9.252;2023-07-29T03:03:13;4.10;;;3.20;;
438;SDS011;206;48.782;9.252;2023-07-29T03:05:39;5.10;;;2.80;;
438;SDS011;206;48.782;9.252;2023-07-29T03:08:04;7.97;;;3.50;;
438;SDS011;206;48.782;9.252;2023-07-29T03:10:30;4.37;;;3.20;;
438;SDS011;206;48.782;9.252;2023-07-29T03:12:56;7.40;;;4.03;;
438;SDS011;206;48.782;9.252;2023-07-29T03:15:25;4.50;;;3.80;;
438;SDS011;206;48.782;9.252;2023-07-29T03:17:51;3.40;;;3.10;;
438;SDS011;206;48.782;9.252;2023-07-29T03:20:17;3.50;;;3.37;;
438;SDS011;206;48.782;9.252;2023-07-29T03:22:43;3.80;;;3.20;;
438;SDS011;206;48.782;9.252;2023-07-29T03:25:09;4.90;;;3.30;;
438;SDS011;206;48.782;9.252;2023-07-29T03:27:34;5.90;;;2.73;;
438;SDS011;206;48.782;9.252;2023-07-29T03:30:02;3.70;;;3.00;;
438;SDS011;206;48.782;9.252;2023-07-29T03:32:28;6.63;;;3.37;;
438;SDS011;206;48.782;9.252;2023-07-29T03:34:54;3.27;;;3.07;;
438;SDS011;206;48.782;9.252;2023-07-29T03:37:19;8.40;;;3.20;;
438;SDS011;206;48.782;9.252;2023-07-29T03:39:46;3.33;;;2.60;;
438;SDS011;206;48.782;9.252;2023-07-29T03:42:12;4.37;;;2.63;;
438;SDS011;206;48.782;9.252;2023-07-29T03:44:38;3.03;;;2.87;;
438;SDS011;206;48.782;9.252;2023-07-29T03:47:04;4.30;;;2.53;;
438;SDS011;206;48.782;9.252;2023-07-29T03:49:30;6.83;;;4.23;;
438;SDS011;206;48.782;9.252;2023-07-29T03:51:56;3.50;;;3.33;;
438;SDS011;206;48.782;9.252;2023-07-29T03:54:22;3.37;;;2.80;;
438;SDS011;206;48.782;9.252;2023-07-29T03:56:47;4.80;;;4.03;;
438;SDS011;206;48.782;9.252;2023-07-29T03:59:13;4.70;;;3.20;;
438;SDS011;206;48.782;9.252;2023-07-29T04:01:38;4.90;;;3.30;;
438;SDS011;206;48.782;9.252;2023-07-29T04:04:04;3.93;;;3.57;;
438;SDS011;206;48.782;9.252;2023-07-29T04:06:30;3.83;;;2.80;;
438;SDS011;206;48.782;9.252;2023-07-29T04:08:55;4.50;;;3.87;;
438;SDS011;206;48.782;9.252;2023-07-29T04:11:21;5.53;;;3.37;;
438;SDS011;206;48.782;9.252;2023-07-29T04:13:47;3.83;;;3.03;;
438;SDS011;206;48.782;9.252;2023-07-29T04:16:13;4.77;;;3.83;;
438;SDS011;206;48.782;9.252;2023-07-29T04:18:39;3.00;;;2.67;;
438;SDS011;206;48.782;9.252;2023-07-29T04:21:04;5.20;;;3.40;;
438;SDS011;206;48.782;9.252;2023-07-29T04:23:30;3.10;;;2.50;;
438;SDS011;206;48.782;9.252;2023-07-29T04:25:55;4.83;;;2.93;;
438;SDS011;206;48.782;9.252;2023-07-29T04:28:21;2.87;;;2.67;;
438;SDS011;206;48.782;9.252;2023-07-29T04:30:46;3.10;;;2.53;;
438;SDS011;206;48.782;9.252;2023-07-29T04:33:12;4.37;;;2.30;;
438;SDS011;206;48.782;9.252;2023-07-29T04:35:37;4.00;;;2.70;;
438;SDS011;206;48.782;9.252;2023-07-29T04:38:03;4.67;;;2.97;;
438;SDS011;206;48.782;9.252;2023-07-29T04:40:29;4.73;;;3.93;;
438;SDS011;206;48.782;9.252;2023-07-29T04:42:54;3.17;;;2.80;;
438;SDS011;206;48.782;9.252;2023-07-29T04:45:20;2.37;;;2.20;;
438;SDS011;206;48.782;9.252;2023-07-29T04:47:45;3.73;;;2.90;;
438;SDS011;206;48.782;9.252;2023-07-29T04:50:11;5.87;;;2.73;;
438;SDS011;206;48.782;9.252;2023-07-29T04:52:36;3.03;;;2.27;;
438;SDS011;206;48.782;9.252;2023-07-29T04:55:02;5.60;;;3.30;;
438;SDS011;206;48.782;9.252;2023-07-29T04:57:28;3.00;;;2.40;;
438;SDS011;206;48.782;9.252;2023-07-29T04:59:54;6.50;;;3.80;;
438;SDS011;206;48.782;9.252;2023-07-29T05:02:19;6.23;;;3.63;;
438;SDS011;206;48.782;9.252;2023-07-29T05:04:46;3.17;;;2.83;;
438;SDS011;206;48.782;9.252;2023-07-29T05:07:11;6.33;;;2.90;;
438;SDS011;206;48.782;9.252;2023-07-29T05:09:37;7.50;;;2.97;;
438;SDS011;206;48.782;9.252;2023-07-29T05:12:02;3.90;;;2.57;;
438;SDS011;206;48.782;9.252;2023-07-29T05:14:28;3.63;;;2.90;;
438;SDS011;206;48.782;9.252;2023-07-29T05:16:54;2.67;;;2.40;;
438;SDS011;206;48.782;9.252;2023-07-29T05:19:19;2.30;;;2.00;;
438;SDS011;206;48.782;9.252;2023-07-29T05:21:45;9.13;;;2.67;;
438;SDS011;206;48.782;9.252;2023-07-29T05:24:10;5.97;;;2.40;;
438;SDS011;206;48.782;9.252;2023-07-29T05:26:36;1.73;;;1.63;;
438;SDS011;206;48.782;9.252;2023-07-29T05:29:02;2.13;;;1.70;;
438;SDS011;206;48.782;9.252;2023-07-29T05:31:28;3.80;;;2.20;;
438;SDS011;206;48.782;9.252;2023-07-29T05:33:54;3.40;;;2.10;;
438;SDS011;206;48.782;9.252;2023-07-29T05:36:20;3.20;;;1.97;;
438;SDS011;206;48.782;9.252;2023-07-29T05:38:45;2.53;;;2.40;;
438;SDS011;206;48.782;9.252;2023-07-29T05:41:11;3.07;;;2.40;;
438;SDS011;206;48.782;9.252;2023-07-29T05:43:37;3.60;;;2.70;;
438;SDS011;206;48.782;9.252;2023-07-29T05:46:02;3.00;;;2.53;;
438;SDS011;206;48.782;9.252;2023-07-29T05:48:28;5.07;;;2.40;;
438;SDS011;206;48.782;9.252;2023-07-29T05:50:53;2.77;;;2.20;;
438;SDS011;206;48.782;9.252;2023-07-29T05:53:19;2.50;;;2.30;;
438;SDS011;206;48.782;9.252;2023-07-29T05:55:45;3.63;;;2.40;;
438;SDS011;206;48.782;9.252;2023-07-29T05:58:10;2.97;;;2.50;;
438;SDS011;206;48.782;9.252;2023-07-29T06:00:36;5.13;;;4.17;;
438;SDS011;206;48.782;9.252;2023-07-29T06:03:01;2.70;;;2.40;;
438;SDS011;206;48.782;9.252;2023-07-29T06:05:27;2.50;;;2.07;;
438;SDS011;206;48.782;9.252;2023-07-29T06:07:53;5.33;;;2.37;;
438;SDS011;206;48.782;9.252;2023-07-29T06:10:18;3.53;;;2.30;;
438;SDS011;206;48.782;9.252;2023-07-29T06:12:47;2.63;;;2.00;;
438;SDS011;206;48.782;9.252;2023-07-29T06:15:12;2.77;;;1.83;;
438;SDS011;206;48.782;9.252;2023-07-29T06:17:38;3.10;;;2.73;;
438;SDS011;206;48.782;9.252;2023-07-29T06:20:06;5.13;;;2.73;;
438;SDS011;206;48.782;9.252;2023-07-29T06:22:31;3.27;;;2.20;;
438;SDS011;206;48.782;9.252;2023-07-29T06:24:57;2.40;;;1.70;;
438;SDS011;206;48.782;9.252;2023-07-29T06:27:23;3.90;;;2.60;;
438;SDS011;206;48.782;9.252;2023-07-29T06:29:50;4.03;;;2.17;;
438;SDS011;206;48.782;9.252;2023-07-29T06:32:15;4.13;;;3.70;;
438;SDS011;206;48.782;9.252;2023-07-29T06:34:41;3.87;;;2.03;;
438;SDS011;206;48.782;9.252;2023-07-29T06:37:06;2.93;;;1.70;;
438;SDS011;206;48.782;9.252;2023-07-29T06:39:32;2.47;;;1.50;;
438;SDS011;206;48.782;9.252;2023-07-29T06:41:58;4.57;;;3.63;;
438;SDS011;206;48.782;9.252;2023-07-29T06:44:23;2.70;;;2.20;;
438;SDS011;206;48.782;9.252;2023-07-29T06:46:49;3.20;;;2.27;;
438;SDS011;206;48.782;9.252;2023-07-29T06:49:14;3.93;;;2.20;;
438;SDS011;206;48.782;9.252;2023-07-29T06:51:40;4.30;;;2.17;;
438;SDS011;206;48.782;9.252;2023-07-29T06:54:05;3.07;;;2.87;;
438;SDS011;206;48.782;9.252;2023-07-29T06:56:31;2.53;;;2.27;;
438;SDS011;206;48.782;9.252;2023-07-29T06:58:57;5.53;;;2.30;;
438;SDS011;206;48.782;9.252;2023-07-29T07:01:22;7.73;;;2.77;;
438;SDS011;206;48.782;9.252;2023-07-29T07:03:48;4.90;;;2.50;;
438;SDS011;206;48.782;9.252;2023-07-29T07:06:13;4.70;;;2.13;;
438;SDS011;206;48.782;9.252;2023-07-29T07:08:39;7.10;;;2.90;;
438;SDS011;206;48.782;9.252;2023-07-29T07:11:06;3.57;;;2.40;;
438;SDS011;206;48.782;9.252;2023-07-29T07:13:31;3.47;;;2.43;;
438;SDS011;206;48.782;9.252;2023-07-29T07:15:57;4.97;;;2.27;;
438;SDS011;206;48.782;9.252;2023-07-29T07:18:22;2.10;;;1.90;;
438;SDS011;206;48.782;9.252;2023-07-29T07:20:48;3.97;;;2.40;;
438;SDS011;206;48.782;9.252;2023-07-29T07:23:15;4.20;;;2.57;;
438;SDS011;206;48.782;9.252;2023-07-29T07:25:41;3.17;;;2.27;;
438;SDS011;206;48.782;9.252;2023-07-29T07:28:07;2.27;;;1.97;;
438;SDS011;206;48.782;9.252;2023-07-29T07:30:34;2.50;;;1.80;;
438;SDS011;206;48.782;9.252;2023-07-29T07:32:59;5.53;;;2.20;;
438;SDS011;206;48.782;9.252;2023-07-29T07:35:25;1.97;;;1.87;;
438;SDS011;206;48.782;9.252;2023-07-29T07:37:51;4.43;;;2.50;;
438;SDS011;206;48.782;9.252;2023-07-29T07:40:16;2.93;;;2.30;;
438;SDS011;206;48.782;9.252;2023-07-29T07:42:42;3.57;;;2.47;;
438;SDS011;206;48.782;9.252;2023-07-29T07:45:08;2.50;;;2.07;;
438;SDS011;206;48.782;9.252;2023-07-29T07:47:33;3.13;;;2.27;;
438;SDS011;206;48.782;9.252;2023-07-29T07:49:59;2.40;;;1.90;;
438;SDS011;206;48.782;9.252;2023-07-29T07:52:24;2.43;;;1.90;;
438;SDS011;206;48.782;9.252;2023-07-29T07:54:53;3.13;;;2.27;;
438;SDS011;206;48.782;9.252;2023-07-29T07:57:22;2.63;;;2.40;;
438;SDS011;206;48.782;9.252;2023-07-29T07:59:48;4.67;;;2.20;;
438;SDS011;206;48.782;9.252;2023-07-29T08:02:13;4.37;;;2.77;;
438;SDS011;206;48.782;9.252;2023-07-29T08:04:39;2.90;;;2.80;;
438;SDS011;206;48.782;9.252;2023-07-29T08:07:05;2.30;;;2.20;;
438;SDS011;206;48.782;9.252;2023-07-29T08:09:30;2.43;;;2.23;;
438;SDS011;206;48.782;9.252;2023-07-29T08:11:56;2.70;;;2.50;;
438;SDS011;206;48.782;9.252;2023-07-29T08:14:22;1.93;;;1.37;;
438;SDS011;206;48.782;9.252;2023-07-29T08:16:47;2.50;;;1.53;;
438;SDS011;206;48.782;9.252;2023-07-29T08:19:13;5.83;;;2.03;;
438;SDS011;206;48.782;9.252;2023-07-29T08:21:38;6.73;;;2.03;;
438;SDS011;206;48.782;9.252;2023-07-29T08:24:04;3.67;;;2.00;;
438;SDS011;206;48.782;9.252;2023-07-29T08:26:31;1.90;;;1.57;;
438;SDS011;206;48.782;9.252;2023-07-29T08:28:57;2.97;;;1.87;;
438;SDS011;206;48.782;9.252;2023-07-29T08:31:22;2.60;;;1.37;;
438;SDS011;206;48.782;9.252;2023-07-29T08:33:48;1.93;;;1.70;;
438;SDS011;206;48.782;9.252;2023-07-29T08:36:13;2.20;;;1.80;;
438;SDS011;206;48.782;9.252;2023-07-29T08:38:39;2.13;;;1.40;;
438;SDS011;206;48.782;9.252;2023-07-29T08:41:16;3.93;;;1.73;;
438;SDS011;206;48.782;9.252;2023-07-29T08:43:56;1.83;;;1.50;;
438;SDS011;206;48.782;9.252;2023-07-29T08:46:28;3.17;;;1.20;;
438;SDS011;206;48.782;9.252;2023-07-29T08:48:54;4.50;;;1.63;;
438;SDS011;206;48.782;9.252;2023-07-29T08:51:20;2.40;;;2.00;;
438;SDS011;206;48.782;9.252;2023-07-29T08:53:48;3.43;;;1.70;;
438;SDS011;206;48.782;9.252;2023-07-29T08:56:14;2.30;;;1.87;;
438;SDS011;206;48.782;9.252;2023-07-29T08:58:40;2.23;;;2.07;;
438;SDS011;206;48.782;9.252;2023-07-29T09:01:06;2.70;;;2.10;;
438;SDS011;206;48.782;9.252;2023-07-29T09:03:32;2.20;;;1.83;;
438;SDS011;206;48.782;9.252;2023-07-29T09:05:58;3.87;;;2.40;;
438;SDS011;206;48.782;9.252;2023-07-29T09:08:25;4.40;;;2.40;;
438;SDS011;206;48.782;9.252;2023-07-29T09:10:51;2.77;;;2.63;;
438;SDS011;206;48.782;9.252;2023-07-29T09:13:17;3.03;;;2.20;;
438;SDS011;206;48.782;9.252;2023-07-29T09:15:42;2.70;;;2.10;;
438;SDS011;206;48.782;9.252;2023-07-29T09:18:09;2.23;;;1.80;;
438;SDS011;206;48.782;9.252;2023-07-29T09:20:36;1.97;;;1.70;;
438;SDS011;206;48.782;9.252;2023-07-29T09:23:02;2.10;;;1.77;;
438;SDS011;206;48.782;9.252;2023-07-29T09:25:28;3.77;;;2.40;;
438;SDS011;206;48.782;9.252;2023-07-29T09:27:58;2.03;;;1.40;;
438;SDS011;206;48.782;9.252;2023-07-29T09:30:27;2.47;;;1.60;;
438;SDS011;206;48.782;9.252;2023-07-29T09:32:56;2.50;;;2.07;;
438;SDS011;206;48.782;9.252;2023-07-29T09:35:23;2.10;;;1.80;;
438;SDS011;206;48.782;9.252;2023-07-29T09:37:52;4.07;;;1.90;;
438;SDS011;206;48.782;9.252;2023-07-29T09:40:18;3.53;;;1.83;;
438;SDS011;206;48.782;9.252;2023-07-29T09:42:48;2.80;;;2.20;;
438;SDS011;206;48.782;9.252;2023-07-29T09:47:49;4.90;;;1.80;;
438;SDS011;206;48.782;9.252;2023-07-29T09:50:15;2.57;;;2.40;;
438;SDS011;206;48.782;9.252;2023-07-29T09:52:41;1.83;;;1.50;;
438;SDS011;206;48.782;9.252;2023-07-29T09:55:09;6.20;;;2.27;;
438;SDS011;206;48.782;9.252;2023-07-29T09:57:39;1.60;;;1.50;;
438;SDS011;206;48.782;9.252;2023-07-29T10:00:05;3.40;;;3.20;;
438;SDS011;206;48.782;9.252;2023-07-29T10:02:36;3.60;;;1.70;;
438;SDS011;206;48.782;9.252;2023-07-29T10:05:03;1.20;;;1.20;;
438;SDS011;206;48.782;9.252;2023-07-29T10:07:30;1.63;;;1.53;;
438;SDS011;206;48.782;9.252;2023-07-29T10:09:56;3.67;;;2.00;;
438;SDS011;206;48.782;9.252;2023-07-29T10:12:23;1.60;;;1.50;;
438;SDS011;206;48.782;9.252;2023-07-29T10:14:49;1.97;;;1.50;;
438;SDS011;206;48.782;9.252;2023-07-29T10:17:16;2.60;;;1.63;;
438;SDS011;206;48.782;9.252;2023-07-29T10:19:41;4.13;;;1.70;;
438;SDS011;206;48.782;9.252;2023-07-29T10:22:09;1.93;;;1.70;;
438;SDS011;206;48.782;9.252;2023-07-29T10:24:37;1.70;;;1.43;;
438;SDS011;206;48.782;9.252;2023-07-29T10:27:06;2.47;;;2.00;;
438;SDS011;206;48.782;9.252;2023-07-29T10:29:38;1.50;;;1.40;;
438;SDS011;206;48.782;9.252;2023-07-29T10:32:05;2.33;;;1.90;;
438;SDS011;206;48.782;9.252;2023-07-29T10:34:32;2.60;;;1.33;;
438;SDS011;206;48.782;9.252;2023-07-29T10:37:00;2.97;;;1.83;;
438;SDS011;206;48.782;9.252;2023-07-29T10:39:26;3.37;;;1.80;;
438;SDS011;206;48.782;9.252;2023-07-29T10:41:58;1.77;;;1.67;;
438;SDS011;206;48.782;9.252;2023-07-29T10:47:17;1.67;;;1.57;;
438;SDS011;206;48.782;9.252;2023-07-29T10:49:46;5.30;;;1.23;;
438;SDS011;206;48.782;9.252;2023-07-29T10:52:15;3.23;;;2.10;;
438;SDS011;206;48.782;9.252;2023-07-29T10:54:42;2.40;;;1.37;;
438;SDS011;206;48.782;9.252;2023-07-29T10:57:15;3.90;;;1.70;;
438;SDS011;206;48.782;9.252;2023-07-29T10:59:56;2.03;;;1.73;;
438;SDS011;206;48.782;9.252;2023-07-29T11:02:22;2.50;;;2.17;;
438;SDS011;206;48.782;9.252;2023-07-29T11:05:06;3.97;;;1.50;;
438;SDS011;206;48.782;9.252;2023-07-29T11:07:42;2.07;;;1.70;;
438;SDS011;206;48.782;9.252;2023-07-29T11:10:09;1.27;;;1.23;;
438;SDS011;206;48.782;9.252;2023-07-29T11:15:20;1.73;;;1.30;;
438;SDS011;206;48.782;9.252;2023-07-29T11:17:58;2.27;;;1.60;;
438;SDS011;206;48.782;9.252;2023-07-29T11:20:31;1.23;;;1.17;;
438;SDS011;206;48.782;9.252;2023-07-29T11:22:59;1.50;;;1.30;;
438;SDS011;206;48.782;9.252;2023-07-29T11:25:29;1.73;;;1.63;;
438;SDS011;206;48.782;9.252;2023-07-29T11:27:55;5.50;;;2.07;;
438;SDS011;206;48.782;9.252;2023-07-29T11:30:22;4.27;;;1.97;;
438;SDS011;206;48.782;9.252;2023-07-29T11:32:58;4.13;;;2.10;;
438;SDS011;206;48.782;9.252;2023-07-29T11:35:24;2.00;;;1.37;;
438;SDS011;206;48.782;9.252;2023-07-29T11:37:51;4.57;;;1.77;;
438;SDS011;206;48.782;9.252;2023-07-29T11:40:18;1.40;;;1.30;;
438;SDS011;206;48.782;9.252;2023-07-29T11:42:45;5.10;;;1.60;;
438;SDS011;206;48.782;9.252;2023-07-29T11:45:12;3.00;;;1.30;;
438;SDS011;206;48.782;9.252;2023-07-29T11:47:38;2.07;;;1.60;;
438;SDS011;206;48.782;9.252;2023-07-29T11:50:04;2.60;;;1.20;;
438;SDS011;206;48.782;9.252;2023-07-29T11:52:34;4.17;;;2.13;;
438;SDS011;206;48.782;9.252;2023-07-29T11:55:04;3.93;;;2.03;;
438;SDS011;206;48.782;9.252;2023-07-29T11:57:31;2.67;;;1.63;;
438;SDS011;206;48.782;9.252;2023-07-29T12:00:01;2.40;;;1.50;;
438;SDS011;206;48.782;9.252;2023-07-29T12:02:31;3.43;;;1.60;;
438;SDS011;206;48.782;9.252;2023-07-29T12:04:59;1.60;;;1.30;;
438;SDS011;206;48.782;9.252;2023-07-29T12:07:25;2.97;;;2.37;;
438;SDS011;206;48.782;9.252;2023-07-29T12:09:52;2.40;;;1.90;;
438;SDS011;206;48.782;9.252;2023-07-29T12:12:18;1.27;;;1.27;;
438;SDS011;206;48.782;9.252;2023-07-29T12:14:44;1.97;;;1.40;;
438;SDS011;206;48.782;9.252;2023-07-29T12:17:11;2.87;;;1.90;;
438;SDS011;206;48.782;9.252;2023-07-29T12:19:38;6.07;;;2.03;;
438;SDS011;206;48.782;9.252;2023-07-29T12:22:05;2.17;;;2.00;;
438;SDS011;206;48.782;9.252;2023-07-29T12:24:33;3.00;;;2.30;;
438;SDS011;206;48.782;9.252;2023-07-29T12:27:00;2.37;;;2.03;;
438;SDS011;206;48.782;9.252;2023-07-29T12:29:26;3.70;;;1.87;;
438;SDS011;206;48.782;9.252;2023-07-29T12:34:25;2.85;;;1.70;;
438;SDS011;206;48.782;9.252;2023-07-29T12:36:53;1.63;;;1.60;;
438;SDS011;206;48.782;9.252;2023-07-29T12:41:53;2.00;;;1.90;;
438;SDS011;206;48.782;9.252;2023-07-29T12:44:23;2.40;;;2.10;;
438;SDS011;206;48.782;9.252;2023-07-29T12:46:50;6.43;;;2.30;;
438;SDS011;206;48.782;9.252;2023-07-29T12:49:16;2.43;;;2.23;;
438;SDS011;206;48.782;9.252;2023-07-29T12:51:42;3.27;;;2.67;;
438;SDS011;206;48.782;9.252;2023-07-29T12:54:08;6.60;;;1.93;;
438;SDS011;206;48.782;9.252;2023-07-29T12:56:33;2.30;;;1.63;;
438;SDS011;206;48.782;9.252;2023-07-29T12:59:00;3.30;;;1.93;;
438;SDS011;206;48.782;9.252;2023-07-29T13:01:27;3.40;;;1.90;;
438;SDS011;206;48.782;9.252;2023-07-29T13:03:53;2.73;;;1.77;;
438;SDS011;206;48.782;9.252;2023-07-29T13:06:19;2.70;;;2.20;;
438;SDS011;206;48.782;9.252;2023-07-29T13:08:45;4.23;;;1.60;;
438;SDS011;206;48.782;9.252;2023-07-29T13:11:11;1.70;;;1.60;;
438;SDS011;206;48.782;9.252;2023-07-29T13:13:37;2.70;;;2.50;;
438;SDS011;206;48.782;9.252;2023-07-29T13:16:03;2.47;;;2.03;;
438;SDS011;206;48.782;9.252;2023-07-29T13:18:29;4.63;;;2.13;;
438;SDS011;206;48.782;9.252;2023-07-29T13:20:55;1.70;;;1.60;;
438;SDS011;206;48.782;9.252;2023-07-29T13:23:21;2.53;;;1.80;;
438;SDS011;206;48.782;9.252;2023-07-29T13:25:47;1.93;;;1.37;;
438;SDS011;206;48.782;9.252;2023-07-29T13:28:12;1.57;;;1.47;;
438;SDS011;206;48.782;9.252;2023-07-29T13:30:38;2.03;;;1.37;;
438;SDS011;206;48.782;9.252;2023-07-29T13:33:06;3.30;;;1.87;;
438;SDS011;206;48.782;9.252;2023-07-29T13:35:32;2.73;;;2.53;;
438;SDS011;206;48.782;9.252;2023-07-29T13:37:58;2.20;;;2.00;;
438;SDS011;206;48.782;9.252;2023-07-29T13:40:23;1.80;;;1.70;;
438;SDS011;206;48.782;9.252;2023-07-29T13:42:49;1.80;;;1.80;;
438;SDS011;206;48.782;9.252;2023-07-29T13:45:14;2.23;;;2.03;;
438;SDS011;206;48.782;9.252;2023-07-29T13:47:40;1.90;;;1.60;;
438;SDS011;206;48.782;9.252;2023-07-29T13:50:06;2.93;;;1.80;;
438;SDS011;206;48.782;9.252;2023-07-29T13:52:33;1.77;;;1.70;;
438;SDS011;206;48.782;9.252;2023-07-29T13:54:58;2.73;;;1.97;;
438;SDS011;206;48.782;9.252;2023-07-29T13:57:24;2.10;;;1.70;;
438;SDS011;206;48.782;9.252;2023-07-29T13:59:50;2.07;;;1.90;;
438;SDS011;206;48.782;9.252;2023-07-29T14:02:15;2.30;;;1.60;;
438;SDS011;206;48.782;9.252;2023-07-29T14:04:41;1.93;;;1.83;;
438;SDS011;206;48.782;9.252;2023-07-29T14:07:06;4.70;;;2.20;;
438;SDS011;206;48.782;9.252;2023-07-29T14:09:32;3.75;;;2.20;;
438;SDS011;206;48.782;9.252;2023-07-29T14:11:58;2.27;;;2.10;;
438;SDS011;206;48.782;9.252;2023-07-29T14:14:23;2.03;;;1.60;;
438;SDS011;206;48.782;9.252;2023-07-29T14:16:49;1.20;;;1.00;;
438;SDS011;206;48.782;9.252;2023-07-29T14:19:14;4.07;;;1.80;;
438;SDS011;206;48.782;9.252;2023-07-29T14:21:40;1.83;;;1.60;;
438;SDS011;206;48.782;9.252;2023-07-29T14:24:05;4.23;;;2.10;;
438;SDS011;206;48.782;9.252;2023-07-29T14:26:31;3.03;;;1.83;;
438;SDS011;206;48.782;9.252;2023-07-29T14:28:57;2.53;;;1.67;;
438;SDS011;206;48.782;9.252;2023-07-29T14:31:22;2.37;;;2.00;;
438;SDS011;206;48.782;9.252;2023-07-29T14:33:48;2.53;;;1.87;;
438;SDS011;206;48.782;9.252;2023-07-29T14:36:16;2.83;;;1.70;;
438;SDS011;206;48.782;9.252;2023-07-29T14:38:42;2.90;;;2.20;;
438;SDS011;206;48.782;9.252;2023-07-29T14:41:08;3.40;;;1.83;;
438;SDS011;206;48.782;9.252;2023-07-29T14:43:33;2.60;;;2.30;;
438;SDS011;206;48.782;9.252;2023-07-29T14:45:59;2.20;;;1.97;;
438;SDS011;206;48.782;9.252;2023-07-29T14:48:25;1.57;;;1.43;;
438;SDS011;206;48.782;9.252;2023-07-29T14:50:51;1.80;;;1.77;;
438;SDS011;206;48.782;9.252;2023-07-29T14:53:16;2.30;;;1.73;;
438;SDS011;206;48.782;9.252;2023-07-29T14:55:42;2.80;;;1.90;;
438;SDS011;206;48.782;9.252;2023-07-29T14:58:08;2.30;;;2.10;;
438;SDS011;206;48.782;9.252;2023-07-29T15:00:33;1.90;;;1.63;;
438;SDS011;206;48.782;9.252;2023-07-29T15:02:59;1.90;;;1.77;;
438;SDS011;206;48.782;9.252;2023-07-29T15:05:25;4.73;;;2.57;;
438;SDS011;206;48.782;9.252;2023-07-29T15:07:50;2.20;;;2.00;;
438;SDS011;206;48.782;9.252;2023-07-29T15:10:16;1.53;;;1.47;;
438;SDS011;206;48.782;9.252;2023-07-29T15:12:43;4.77;;;2.00;;
438;SDS011;206;48.782;9.252;2023-07-29T15:15:10;2.33;;;2.23;;
438;SDS011;206;48.782;9.252;2023-07-29T15:17:36;2.70;;;2.50;;
438;SDS011;206;48.782;9.252;2023-07-29T15:20:02;1.83;;;1.57;;
438;SDS011;206;48.782;9.252;2023-07-29T15:22:31;3.33;;;2.07;;
438;SDS011;206;48.782;9.252;2023-07-29T15:24:57;1.73;;;1.63;;
438;SDS011;206;48.782;9.252;2023-07-29T15:27:25;1.90;;;1.50;;
438;SDS011;206;48.782;9.252;2023-07-29T15:29:50;1.97;;;1.87;;
438;SDS011;206;48.782;9.252;2023-07-29T15:32:16;2.67;;;2.30;;
438;SDS011;206;48.782;9.252;2023-07-29T15:34:41;2.57;;;2.00;;
438;SDS011;206;48.782;9.252;2023-07-29T15:37:07;2.20;;;2.00;;
438;SDS011;206;48.782;9.252;2023-07-29T15:39:33;2.60;;;1.80;;
438;SDS011;206;48.782;9.252;2023-07-29T15:41:58;2.77;;;2.13;;
438;SDS011;206;48.782;9.252;2023-07-29T15:44:24;2.30;;;2.10;;
438;SDS011;206;48.782;9.252;2023-07-29T15:46:49;2.27;;;2.13;;
438;SDS011;206;48.782;9.252;2023-07-29T15:49:17;2.93;;;2.23;;
438;SDS011;206;48.782;9.252;2023-07-29T15:51:42;2.30;;;2.10;;
438;SDS011;206;48.782;9.252;2023-07-29T15:54:08;2.20;;;1.77;;
438;SDS011;206;48.782;9.252;2023-07-29T15:56:34;3.00;;;2.57;;
438;SDS011;206;48.782;9.252;2023-07-29T15:59:01;2.03;;;1.93;;
438;SDS011;206;48.782;9.252;2023-07-29T16:01:27;2.13;;;1.63;;